createdAt,value
2022-07-26T00:00:14.287Z,99.90
2022-07-26T00:02:47.944Z,99.90
2022-07-26T00:05:15.937Z,99.90
2022-07-26T00:07:43.220Z,99.90
2022-07-26T00:10:10.454Z,99.90
2022-07-26T00:12:37.609Z,99.90
2022-07-26T00:15:05.678Z,99.90
2022-07-26T00:17:32.528Z,99.90
2022-07-26T00:19:59.437Z,99.90
2022-07-26T00:22:35.513Z,99.90
2022-07-26T00:25:04.276Z,99.90
2022-07-26T00:27:31.266Z,99.90
2022-07-26T00:29:58.136Z,99.90
2022-07-26T00:32:25.027Z,99.90
2022-07-26T00:34:52.599Z,99.90
2022-07-26T00:37:20.866Z,99.90
2022-07-26T00:39:48.757Z,99.90
2022-07-26T00:42:15.664Z,99.90
2022-07-26T00:44:45.456Z,99.90
2022-07-26T00:47:12.705Z,99.90
2022-07-26T00:49:40.182Z,99.90
2022-07-26T00:52:07.802Z,99.90
2022-07-26T00:54:35.068Z,99.90
2022-07-26T00:57:02.024Z,99.90
2022-07-26T00:59:29.073Z,99.90
2022-07-26T01:01:56.334Z,99.90
2022-07-26T01:04:23.411Z,99.90
2022-07-26T01:06:50.418Z,99.90
2022-07-26T01:09:17.274Z,99.90
2022-07-26T01:11:44.242Z,99.90
2022-07-26T01:14:11.508Z,99.90
2022-07-26T01:16:38.622Z,99.90
2022-07-26T01:19:05.585Z,99.90
2022-07-26T01:21:33.661Z,99.90
2022-07-26T01:24:00.792Z,99.90
2022-07-26T01:26:27.737Z,99.90
2022-07-26T01:28:54.774Z,99.90
2022-07-26T01:31:21.760Z,99.90
2022-07-26T01:33:49.437Z,99.90
2022-07-26T01:36:16.385Z,99.90
2022-07-26T01:38:43.340Z,99.90
2022-07-26T01:41:10.658Z,99.90
2022-07-26T01:43:37.755Z,99.90
2022-07-26T01:46:06.042Z,99.90
2022-07-26T01:48:33.223Z,99.90
2022-07-26T01:51:00.621Z,99.90
2022-07-26T01:53:27.566Z,99.90
2022-07-26T01:55:54.675Z,99.90
2022-07-26T01:58:21.709Z,99.90
2022-07-26T02:00:48.979Z,99.90
2022-07-26T02:03:15.940Z,99.90
2022-07-26T02:05:42.859Z,99.90
2022-07-26T02:08:10.695Z,99.90
2022-07-26T02:10:56.125Z,99.90
2022-07-26T02:13:24.062Z,99.90
2022-07-26T02:15:51.065Z,99.90
2022-07-26T02:18:18.377Z,99.90
2022-07-26T02:20:45.509Z,99.90
2022-07-26T02:23:12.574Z,99.90
2022-07-26T02:25:39.513Z,99.90
2022-07-26T02:28:06.500Z,99.90
2022-07-26T02:30:33.755Z,99.90
2022-07-26T02:33:00.730Z,99.90
2022-07-26T02:35:27.702Z,99.90
2022-07-26T02:37:54.649Z,99.90
2022-07-26T02:40:21.589Z,99.90
2022-07-26T02:42:48.466Z,99.90
2022-07-26T02:45:15.420Z,99.90
2022-07-26T02:47:49.190Z,99.90
2022-07-26T02:50:16.898Z,99.90
2022-07-26T02:52:43.898Z,99.90
2022-07-26T02:55:10.861Z,99.90
2022-07-26T02:57:45.504Z,99.90
2022-07-26T03:00:15.627Z,99.90
2022-07-26T03:02:42.722Z,99.90
2022-07-26T03:05:10.025Z,99.90
2022-07-26T03:07:36.962Z,99.90
2022-07-26T03:10:04.674Z,99.90
2022-07-26T03:12:31.660Z,99.90
2022-07-26T03:14:58.566Z,99.90
2022-07-26T03:17:25.484Z,99.90
2022-07-26T03:19:52.408Z,99.90
2022-07-26T03:22:19.329Z,99.90
2022-07-26T03:24:46.204Z,99.90
2022-07-26T03:27:13.163Z,99.90
2022-07-26T03:29:40.108Z,99.90
2022-07-26T03:32:07.107Z,99.90
2022-07-26T03:34:33.988Z,99.90
2022-07-26T03:37:00.855Z,99.90
2022-07-26T03:39:27.705Z,99.90
2022-07-26T03:41:54.583Z,99.90
2022-07-26T03:44:21.453Z,99.90
2022-07-26T03:46:48.298Z,99.90
2022-07-26T03:49:17.182Z,99.90
2022-07-26T03:51:44.447Z,99.90
2022-07-26T03:54:11.767Z,99.90
2022-07-26T03:56:39.575Z,99.90
2022-07-26T03:59:07.838Z,99.90
2022-07-26T04:01:35.419Z,99.90
2022-07-26T04:04:02.598Z,99.90
2022-07-26T04:06:29.514Z,99.90
2022-07-26T04:08:57.056Z,99.90
2022-07-26T04:11:27.748Z,99.90
2022-07-26T04:13:56.218Z,99.90
2022-07-26T04:16:23.194Z,99.90
2022-07-26T04:18:50.170Z,99.90
2022-07-26T04:21:17.378Z,99.90
2022-07-26T04:23:47.855Z,99.90
2022-07-26T04:26:18.045Z,99.90
2022-07-26T04:28:45.044Z,99.90
2022-07-26T04:31:12.511Z,99.90
2022-07-26T04:33:39.473Z,99.90
2022-07-26T04:36:06.426Z,99.90
2022-07-26T04:38:33.333Z,99.90
2022-07-26T04:41:00.315Z,99.90
2022-07-26T04:43:27.233Z,99.90
2022-07-26T04:45:54.174Z,99.90
2022-07-26T04:48:21.126Z,99.90
2022-07-26T04:50:47.999Z,99.90
2022-07-26T04:53:14.986Z,99.90
2022-07-26T04:55:42.112Z,99.90
2022-07-26T04:58:09.488Z,99.90
2022-07-26T05:00:51.350Z,99.90
2022-07-26T05:03:25.300Z,99.90
2022-07-26T05:05:52.277Z,99.90
2022-07-26T05:08:19.497Z,99.90
2022-07-26T05:10:47.779Z,99.90
2022-07-26T05:13:16.318Z,99.90
2022-07-26T05:15:50.097Z,99.90
2022-07-26T05:18:21.069Z,99.90
2022-07-26T05:20:51.022Z,99.90
2022-07-26T05:23:17.991Z,99.90
2022-07-26T05:25:44.865Z,99.90
2022-07-26T05:28:11.878Z,99.90
2022-07-26T05:30:38.796Z,99.90
2022-07-26T05:33:05.759Z,99.90
2022-07-26T05:35:32.633Z,99.90
2022-07-26T05:37:59.481Z,99.90
2022-07-26T05:40:26.461Z,99.90
2022-07-26T05:42:53.350Z,99.90
2022-07-26T05:45:20.299Z,99.90
2022-07-26T05:47:49.920Z,98.90
2022-07-26T05:50:16.797Z,99.90
2022-07-26T05:52:43.684Z,99.90
2022-07-26T05:55:10.600Z,99.90
2022-07-26T05:57:41.564Z,96.60
2022-07-26T06:00:11.501Z,96.00
2022-07-26T06:02:38.398Z,95.00
2022-07-26T06:05:05.642Z,94.40
2022-07-26T06:07:32.524Z,96.00
2022-07-26T06:09:59.462Z,98.10
2022-07-26T06:12:26.630Z,98.90
2022-07-26T06:14:53.556Z,99.90
2022-07-26T06:17:20.577Z,99.60
2022-07-26T06:19:47.979Z,99.90
2022-07-26T06:22:15.347Z,99.90
2022-07-26T06:24:42.238Z,99.90
2022-07-26T06:27:09.151Z,99.90
2022-07-26T06:29:35.994Z,99.90
2022-07-26T06:32:03.019Z,99.90
2022-07-26T06:34:30.166Z,99.90
2022-07-26T06:36:57.181Z,99.90
2022-07-26T06:39:24.204Z,99.90
2022-07-26T06:41:51.089Z,99.90
2022-07-26T06:44:17.958Z,99.90
2022-07-26T06:46:44.932Z,99.90
2022-07-26T06:49:12.922Z,99.90
2022-07-26T06:51:39.989Z,99.90
2022-07-26T06:54:07.189Z,99.90
2022-07-26T06:56:34.286Z,99.90
2022-07-26T06:59:03.129Z,99.90
2022-07-26T07:01:55.228Z,99.90
2022-07-26T07:04:20.054Z,99.90
2022-07-26T07:06:46.967Z,99.90
2022-07-26T07:09:16.439Z,99.90
2022-07-26T07:11:44.501Z,99.90
2022-07-26T07:14:12.064Z,99.90
2022-07-26T07:16:39.235Z,99.90
2022-07-26T07:19:06.232Z,99.90
2022-07-26T07:21:33.982Z,99.90
2022-07-26T07:24:00.924Z,99.90
2022-07-26T07:26:28.963Z,99.90
2022-07-26T07:28:56.368Z,99.90
2022-07-26T07:31:30.493Z,99.90
2022-07-26T07:34:10.711Z,99.90
2022-07-26T07:36:37.940Z,99.90
2022-07-26T07:39:07.088Z,99.90
2022-07-26T07:41:38.296Z,99.90
2022-07-26T07:44:05.961Z,99.90
2022-07-26T07:46:33.003Z,99.90
2022-07-26T07:49:00.060Z,99.90
2022-07-26T07:51:27.146Z,99.90
2022-07-26T07:53:57.969Z,99.90
2022-07-26T07:56:26.341Z,99.90
2022-07-26T07:58:53.237Z,99.90
2022-07-26T08:01:20.294Z,99.90
2022-07-26T08:03:50.204Z,99.90
2022-07-26T08:06:17.728Z,99.90
2022-07-26T08:08:44.765Z,99.90
2022-07-26T08:11:12.511Z,99.90
2022-07-26T08:13:41.506Z,99.90
2022-07-26T08:16:10.454Z,99.60
2022-07-26T08:18:55.751Z,99.90
2022-07-26T08:21:23.805Z,99.90
2022-07-26T08:23:53.212Z,99.90
2022-07-26T08:26:20.106Z,99.90
2022-07-26T08:28:48.081Z,99.90
2022-07-26T08:31:16.216Z,99.90
2022-07-26T08:33:46.363Z,99.90
2022-07-26T08:36:17.326Z,99.90
2022-07-26T08:38:44.941Z,99.80
2022-07-26T08:41:14.827Z,99.30
2022-07-26T08:43:46.758Z,99.90
2022-07-26T08:46:24.853Z,99.90
2022-07-26T08:48:52.607Z,99.90
2022-07-26T08:51:20.657Z,99.90
2022-07-26T08:53:47.798Z,99.90
2022-07-26T08:56:14.726Z,99.90
2022-07-26T08:58:43.549Z,99.90
2022-07-26T09:01:15.337Z,99.90
2022-07-26T09:03:42.917Z,99.90
2022-07-26T09:06:14.028Z,99.90
2022-07-26T09:08:40.954Z,99.30
2022-07-26T09:11:28.307Z,99.90
2022-07-26T09:13:56.734Z,99.90
2022-07-26T09:16:23.838Z,99.60
2022-07-26T09:18:50.904Z,99.90
2022-07-26T09:21:31.083Z,99.90
2022-07-26T09:23:58.696Z,99.70
2022-07-26T09:26:26.257Z,99.60
2022-07-26T09:29:10.040Z,99.90
2022-07-26T09:31:38.085Z,99.40
2022-07-26T09:34:05.984Z,99.90
2022-07-26T09:36:33.689Z,99.90
2022-07-26T09:39:01.919Z,99.90
2022-07-26T09:41:35.560Z,99.90
2022-07-26T09:44:04.070Z,99.90
2022-07-26T09:46:32.215Z,99.90
2022-07-26T09:49:16.350Z,99.90
2022-07-26T09:51:45.610Z,99.90
2022-07-26T09:54:17.345Z,99.90
2022-07-26T09:56:45.183Z,99.90
2022-07-26T09:59:13.425Z,99.90
2022-07-26T10:01:40.430Z,99.90
2022-07-26T10:04:07.998Z,99.90
2022-07-26T10:06:35.201Z,99.90
2022-07-26T10:09:02.323Z,99.90
2022-07-26T10:11:32.197Z,99.50
2022-07-26T10:13:59.509Z,99.90
2022-07-26T10:16:33.218Z,99.90
2022-07-26T10:19:02.835Z,99.70
2022-07-26T10:21:30.719Z,99.90
2022-07-26T10:24:01.509Z,99.80
2022-07-26T10:26:35.125Z,99.90
2022-07-26T10:29:17.223Z,99.90
2022-07-26T10:31:44.619Z,99.90
2022-07-26T10:34:33.177Z,99.50
2022-07-26T10:37:01.492Z,99.90
2022-07-26T10:39:28.721Z,99.90
2022-07-26T10:42:05.047Z,99.90
2022-07-26T10:44:36.231Z,99.60
2022-07-26T10:47:09.209Z,99.90
2022-07-26T10:49:36.104Z,99.90
2022-07-26T10:52:07.192Z,99.90
2022-07-26T10:54:54.029Z,99.90
2022-07-26T10:57:20.883Z,99.90
2022-07-26T10:59:55.864Z,99.50
2022-07-26T11:02:29.021Z,99.50
2022-07-26T11:04:59.776Z,99.90
2022-07-26T11:07:26.972Z,99.90
2022-07-26T11:09:57.158Z,99.90
2022-07-26T11:12:24.211Z,99.90
2022-07-26T11:14:51.654Z,99.90
2022-07-26T11:17:24.566Z,99.30
2022-07-26T11:19:51.805Z,99.40
2022-07-26T11:22:19.990Z,99.90
2022-07-26T11:24:46.996Z,99.90
2022-07-26T11:27:14.179Z,99.90
2022-07-26T11:29:41.576Z,99.50
2022-07-26T11:32:19.318Z,99.70
2022-07-26T11:34:47.521Z,99.90
2022-07-26T11:37:14.813Z,99.90
2022-07-26T11:39:41.687Z,99.90
2022-07-26T11:42:19.724Z,99.90
2022-07-26T11:44:47.108Z,99.90
2022-07-26T11:47:20.256Z,99.90
2022-07-26T11:50:00.865Z,99.90
2022-07-26T11:52:34.432Z,99.90
2022-07-26T11:55:01.297Z,99.90
2022-07-26T11:57:29.321Z,99.90
2022-07-26T11:59:56.296Z,99.90
2022-07-26T12:02:23.454Z,99.90
2022-07-26T12:05:10.472Z,99.90
2022-07-26T12:07:38.026Z,99.90
2022-07-26T12:10:05.293Z,99.90
2022-07-26T12:12:32.177Z,99.90
2022-07-26T12:15:00.280Z,99.90
2022-07-26T12:17:27.424Z,99.90
2022-07-26T12:20:18.384Z,99.90
2022-07-26T12:23:00.515Z,99.90
2022-07-26T12:25:28.574Z,99.90
2022-07-26T12:27:55.950Z,99.90
2022-07-26T12:30:22.924Z,99.90
2022-07-26T12:32:52.032Z,99.90
2022-07-26T12:35:29.458Z,99.90
2022-07-26T12:37:57.439Z,99.90
2022-07-26T12:40:25.825Z,99.90
2022-07-26T12:43:02.184Z,99.90
2022-07-26T12:45:33.474Z,99.90
2022-07-26T12:48:01.561Z,99.90
2022-07-26T12:50:29.230Z,99.90
2022-07-26T12:53:02.892Z,99.90
2022-07-26T12:55:29.927Z,99.90
2022-07-26T12:57:57.173Z,99.90
2022-07-26T13:00:24.187Z,99.90
2022-07-26T13:02:51.463Z,99.90
2022-07-26T13:05:18.453Z,99.90
2022-07-26T13:07:45.666Z,99.90
2022-07-26T13:12:59.774Z,99.90
2022-07-26T13:15:36.550Z,99.90
2022-07-26T13:18:08.422Z,99.90
2022-07-26T13:20:38.702Z,99.90
2022-07-26T13:23:06.730Z,99.90
2022-07-26T13:25:39.666Z,99.90
2022-07-26T13:28:07.765Z,99.90
2022-07-26T13:30:36.122Z,99.90
2022-07-26T13:33:03.111Z,99.90
2022-07-26T13:35:30.033Z,99.90
2022-07-26T13:37:56.919Z,99.90
2022-07-26T13:40:29.006Z,99.90
2022-07-26T13:42:58.111Z,99.90
2022-07-26T13:45:24.946Z,99.90
2022-07-26T13:47:56.403Z,99.90
2022-07-26T13:50:23.347Z,99.90
2022-07-26T13:52:50.350Z,99.90
2022-07-26T13:55:17.320Z,99.90
2022-07-26T13:57:49.582Z,99.90
2022-07-26T14:00:23.437Z,99.90
2022-07-26T14:02:50.398Z,99.90
2022-07-26T14:05:17.518Z,99.90
2022-07-26T14:07:44.618Z,99.90
2022-07-26T14:10:11.585Z,99.90
2022-07-26T14:15:16.689Z,99.90
2022-07-26T14:17:47.423Z,99.90
2022-07-26T14:20:14.826Z,99.90
2022-07-26T14:22:41.684Z,99.90
2022-07-26T14:25:08.761Z,99.90
2022-07-26T14:27:35.738Z,99.90
2022-07-26T14:30:03.229Z,99.90
2022-07-26T14:32:30.089Z,99.90
2022-07-26T14:34:56.970Z,99.90
2022-07-26T14:37:42.953Z,99.90
2022-07-26T14:40:11.041Z,99.90
2022-07-26T14:42:37.889Z,99.90
2022-07-26T14:45:04.993Z,99.90
2022-07-26T14:47:31.857Z,99.90
2022-07-26T14:50:02.774Z,99.90
2022-07-26T14:52:32.846Z,99.90
2022-07-26T14:54:59.797Z,99.90
2022-07-26T14:57:26.999Z,99.90
2022-07-26T14:59:53.858Z,99.90
2022-07-26T15:02:20.872Z,99.90
2022-07-26T15:04:47.845Z,99.90
2022-07-26T15:07:14.708Z,99.90
2022-07-26T15:09:41.743Z,99.90
2022-07-26T15:12:08.675Z,99.90
2022-07-26T15:14:36.133Z,99.90
2022-07-26T15:17:03.211Z,99.90
2022-07-26T15:19:30.235Z,99.90
2022-07-26T15:21:57.169Z,99.90
2022-07-26T15:24:24.449Z,99.90
2022-07-26T15:26:51.523Z,99.90
2022-07-26T15:29:18.519Z,99.90
2022-07-26T15:31:46.741Z,99.90
2022-07-26T15:34:13.952Z,99.90
2022-07-26T15:36:41.278Z,99.90
2022-07-26T15:39:23.529Z,99.90
2022-07-26T15:41:50.683Z,99.90
2022-07-26T15:44:18.341Z,99.90
2022-07-26T15:46:49.196Z,99.90
2022-07-26T15:49:17.541Z,99.90
2022-07-26T15:51:44.521Z,99.90
2022-07-26T15:54:12.841Z,99.90
2022-07-26T15:56:40.254Z,99.90
2022-07-26T15:59:07.379Z,99.90
2022-07-26T16:01:35.176Z,99.90
2022-07-26T16:04:03.635Z,99.90
2022-07-26T16:06:30.799Z,99.90
2022-07-26T16:09:23.194Z,99.90
2022-07-26T16:11:44.816Z,99.90
2022-07-26T16:14:11.774Z,99.90
2022-07-26T16:16:38.712Z,99.90
2022-07-26T16:19:05.619Z,99.90
2022-07-26T16:21:32.653Z,99.90
2022-07-26T16:24:04.415Z,99.90
2022-07-26T16:26:33.228Z,99.90
2022-07-26T16:29:00.915Z,99.90
2022-07-26T16:31:27.983Z,99.90
2022-07-26T16:33:54.940Z,99.90
2022-07-26T16:36:21.799Z,99.90
2022-07-26T16:38:48.787Z,99.90
2022-07-26T16:41:15.723Z,99.90
2022-07-26T16:43:43.081Z,99.90
2022-07-26T16:46:10.138Z,99.90
2022-07-26T16:48:37.205Z,99.90
2022-07-26T16:51:04.636Z,99.90
2022-07-26T16:53:31.520Z,99.90
2022-07-26T16:55:58.562Z,99.90
2022-07-26T16:58:25.462Z,99.90
2022-07-26T17:00:52.438Z,99.90
2022-07-26T17:03:19.634Z,99.90
2022-07-26T17:05:47.443Z,99.90
2022-07-26T17:08:14.429Z,99.90
2022-07-26T17:10:41.443Z,99.90
2022-07-26T17:13:08.519Z,99.90
2022-07-26T17:15:35.414Z,99.90
2022-07-26T17:18:02.361Z,99.90
2022-07-26T17:20:29.305Z,99.90
2022-07-26T17:22:56.184Z,99.90
2022-07-26T17:25:23.045Z,99.90
2022-07-26T17:27:50.852Z,99.90
2022-07-26T17:30:17.826Z,99.90
2022-07-26T17:32:44.710Z,99.90
2022-07-26T17:35:11.880Z,99.90
2022-07-26T17:37:38.840Z,99.90
2022-07-26T17:40:08.179Z,99.90
2022-07-26T17:42:36.165Z,99.90
2022-07-26T17:45:03.699Z,99.90
2022-07-26T17:47:30.919Z,99.90
2022-07-26T17:52:48.895Z,99.90
2022-07-26T17:55:15.987Z,99.90
2022-07-26T17:57:42.831Z,99.90
2022-07-26T18:00:10.197Z,99.90
2022-07-26T18:02:37.319Z,99.90
2022-07-26T18:05:04.458Z,99.90
2022-07-26T18:07:31.494Z,99.90
2022-07-26T18:09:58.398Z,99.90
2022-07-26T18:12:25.255Z,99.90
2022-07-26T18:14:52.121Z,99.90
2022-07-26T18:17:18.960Z,99.90
2022-07-26T18:19:46.041Z,99.90
2022-07-26T18:22:12.904Z,99.90
2022-07-26T18:24:45.545Z,99.90
2022-07-26T18:27:12.384Z,99.90
2022-07-26T18:29:39.319Z,99.90
2022-07-26T18:32:06.413Z,99.90
2022-07-26T18:34:33.264Z,99.90
2022-07-26T18:37:00.123Z,99.90
2022-07-26T18:39:32.579Z,99.90
2022-07-26T18:42:00.291Z,99.90
2022-07-26T18:44:27.215Z,99.90
2022-07-26T18:46:56.382Z,99.90
2022-07-26T18:49:23.695Z,99.90
2022-07-26T18:52:00.665Z,99.90
2022-07-26T18:54:31.027Z,99.90
2022-07-26T18:56:58.132Z,99.90
2022-07-26T18:59:25.002Z,99.90
2022-07-26T19:01:51.946Z,99.90
2022-07-26T19:04:19.419Z,99.90
2022-07-26T19:06:49.765Z,99.90
2022-07-26T19:09:16.781Z,99.90
2022-07-26T19:11:45.922Z,99.90
2022-07-26T19:14:13.195Z,99.90
2022-07-26T19:16:40.104Z,99.90
2022-07-26T19:19:06.987Z,99.90
2022-07-26T19:21:33.901Z,99.90
2022-07-26T19:24:00.757Z,99.90
2022-07-26T19:26:27.733Z,99.90
2022-07-26T19:28:54.691Z,99.90
2022-07-26T19:31:22.202Z,99.90
2022-07-26T19:33:49.127Z,99.90
2022-07-26T19:36:19.015Z,99.90
2022-07-26T19:38:53.338Z,99.90
2022-07-26T19:41:20.230Z,99.90
2022-07-26T19:43:47.165Z,99.90
2022-07-26T19:46:14.351Z,99.90
2022-07-26T19:48:41.388Z,99.90
2022-07-26T19:51:08.358Z,99.90
2022-07-26T19:53:35.246Z,99.90
2022-07-26T19:56:02.094Z,99.90
2022-07-26T19:58:30.657Z,99.90
2022-07-26T20:00:57.508Z,99.90
2022-07-26T20:03:24.412Z,99.90
2022-07-26T20:05:53.639Z,99.90
2022-07-26T20:08:20.937Z,99.90
2022-07-26T20:10:47.973Z,99.90
2022-07-26T20:13:14.898Z,99.90
2022-07-26T20:15:41.896Z,99.90
2022-07-26T20:18:09.335Z,99.90
2022-07-26T20:20:36.397Z,99.90
2022-07-26T20:23:05.932Z,99.90
2022-07-26T20:25:33.164Z,99.90
2022-07-26T20:28:00.129Z,99.90
2022-07-26T20:30:27.058Z,99.90
2022-07-26T20:32:53.902Z,99.90
2022-07-26T20:35:20.767Z,99.90
2022-07-26T20:37:47.700Z,99.90
2022-07-26T20:40:15.506Z,99.90
2022-07-26T20:42:44.895Z,99.90
2022-07-26T20:45:13.082Z,99.90
2022-07-26T20:47:40.684Z,99.90
2022-07-26T20:50:11.314Z,99.90
2022-07-26T20:52:38.739Z,99.90
2022-07-26T20:55:05.965Z,99.90
2022-07-26T20:57:33.002Z,99.90
2022-07-26T20:59:59.890Z,99.90
2022-07-26T21:02:26.965Z,99.90
2022-07-26T21:04:53.885Z,99.90
2022-07-26T21:07:20.784Z,99.90
2022-07-26T21:09:47.716Z,99.90
2022-07-26T21:12:14.631Z,99.90
2022-07-26T21:14:41.538Z,99.90
2022-07-26T21:17:11.877Z,99.90
2022-07-26T21:19:39.486Z,99.90
2022-07-26T21:22:06.741Z,99.90
2022-07-26T21:24:35.153Z,99.90
2022-07-26T21:27:02.429Z,99.90
2022-07-26T21:29:29.335Z,99.90
2022-07-26T21:31:56.265Z,99.90
2022-07-26T21:34:25.665Z,99.90
2022-07-26T21:36:53.361Z,99.90
2022-07-26T21:39:20.721Z,99.90
2022-07-26T21:41:47.668Z,99.90
2022-07-26T21:44:14.624Z,99.90
2022-07-26T21:46:41.546Z,99.90
2022-07-26T21:49:08.891Z,99.90
2022-07-26T21:51:36.070Z,99.90
2022-07-26T21:54:02.952Z,99.90
2022-07-26T21:56:29.834Z,99.90
2022-07-26T21:58:56.817Z,99.90
2022-07-26T22:01:24.422Z,99.90
2022-07-26T22:03:51.351Z,99.90
2022-07-26T22:06:18.654Z,99.90
2022-07-26T22:08:45.821Z,99.90
2022-07-26T22:11:12.746Z,99.90
2022-07-26T22:13:39.776Z,99.90
2022-07-26T22:16:07.273Z,99.90
2022-07-26T22:18:34.202Z,99.90
2022-07-26T22:21:01.242Z,99.90
2022-07-26T22:23:30.589Z,99.90
2022-07-26T22:25:59.242Z,99.90
2022-07-26T22:28:26.217Z,99.90
2022-07-26T22:30:53.156Z,99.90
2022-07-26T22:33:20.380Z,99.90
2022-07-26T22:35:47.356Z,99.90
2022-07-26T22:38:15.024Z,99.90
2022-07-26T22:40:42.166Z,99.90
2022-07-26T22:43:09.684Z,99.90
2022-07-26T22:45:37.474Z,99.90
2022-07-26T22:48:04.928Z,99.90
2022-07-26T22:50:32.526Z,99.90
2022-07-26T22:53:01.149Z,99.90
2022-07-26T22:55:28.440Z,99.90
2022-07-26T22:57:55.377Z,99.90
2022-07-26T23:00:22.378Z,99.90
2022-07-26T23:02:49.288Z,99.90
2022-07-26T23:05:16.248Z,99.90
2022-07-26T23:07:43.564Z,99.90
2022-07-26T23:10:15.412Z,99.90
2022-07-26T23:12:42.508Z,99.90
2022-07-26T23:15:10.125Z,99.90
2022-07-26T23:17:37.606Z,99.90
2022-07-26T23:20:06.227Z,99.90
2022-07-26T23:22:33.495Z,99.90
2022-07-26T23:27:29.880Z,99.90
2022-07-26T23:29:56.771Z,99.90
2022-07-26T23:32:23.627Z,99.90
2022-07-26T23:34:50.646Z,99.90
2022-07-26T23:37:17.515Z,99.90
2022-07-26T23:39:44.401Z,99.90
2022-07-26T23:42:11.327Z,99.90
2022-07-26T23:44:38.207Z,99.90
2022-07-26T23:47:05.202Z,99.90
2022-07-26T23:49:32.284Z,99.90
2022-07-26T23:51:59.227Z,99.90
2022-07-26T23:54:26.078Z,99.90
2022-07-26T23:56:52.983Z,99.90
2022-07-26T23:59:19.849Z,99.90
